Weather History for KHYS - July, 2013

Change the Weather History Date:

Thursday, July 11, 2013

  Actual Average Record
Temperature  
Mean Temperature 84 °F -  
Max Temperature 96 °F 90 °F 102 °F (2001)
Min Temperature 71 °F 64 °F 50 °F (1999)
Cooling Degree Days 18    
Growing Degree Days 34 (Base 50)    
Moisture  
Dew Point 64 °F    
Average Humidity 54    
Maximum Humidity 74    
Minimum Humidity 34    
Precipitation  
Precipitation 0.00 in - - ()
Sea Level Pressure  
Sea Level Pressure 30.00 in    
Wind  
Wind Speed 11 mph (SE)    
Max Wind Speed 25 mph    
Max Gust Speed 30 mph    
Visibility 10 miles    
Events      
Averages and records for this station are not official NWS values.
T = Trace of Precipitation, MM = Missing Value Source: NWS Daily Summary

Daily Weather History Graph

Daily Weather History Graph

Search for Another Location

Airport or City:

Trip Planner

Search our weather history database for the weather conditions in past years. The results will help you decide how hot, cold, wet, or windy it might be!

Date:

Astronomy

Jul. 11, 2013 Rise Set
Actual Time 6:21 AM CDT 9:03 PM CDT
Civil Twilight 5:50 AM CDT 9:34 PM CDT
Nautical Twilight 5:11 AM CDT 10:13 PM CDT
Astronomical Twilight 4:26 AM CDT 10:57 PM CDT
Moon 9:39 AM CDT (7/11) 10:47 PM CDT (7/11)
Length of Visible Light 15h 44m
Length of Day
14h 41m
Waxing Crescent, 11% of the Moon is Illuminated
Jul 11
Waxing Crescent
Jul 15
First Quarter
Jul 22
Full
Jul 29
Last Quarter
Aug 6
New

Hourly Weather History & Observations

Time (CDT) Temp. Heat Index Dew Point Humidity Pressure Visibility Wind Dir Wind Speed Gust Speed Precip Events Conditions
12:15 AM 78.8 °F - 66.2 °F 65% 30.06 in 10.0 mi ESE 8.1 mph - N/A   Clear
12:35 AM 78.8 °F - 64.4 °F 61% 30.05 in 10.0 mi ESE 12.7 mph - N/A   Clear
12:55 AM 78.8 °F - 62.6 °F 57% 30.04 in 10.0 mi ESE 12.7 mph - N/A   Clear
1:15 AM 78.8 °F - 62.6 °F 57% 30.03 in 10.0 mi ESE 12.7 mph - N/A   Clear
1:35 AM 77.0 °F - 62.6 °F 61% 30.03 in 10.0 mi ESE 11.5 mph - N/A   Clear
1:55 AM 77.0 °F - 62.6 °F 61% 30.03 in 10.0 mi ESE 11.5 mph - N/A   Clear
2:15 AM 77.0 °F - 62.6 °F 61% 30.03 in 10.0 mi East 10.4 mph - N/A   Clear
2:35 AM 77.0 °F - 62.6 °F 61% 30.04 in 10.0 mi East 8.1 mph - N/A   Partly Cloudy
2:55 AM 75.2 °F - 62.6 °F 65% 30.04 in 10.0 mi East 8.1 mph - N/A   Mostly Cloudy
3:15 AM 75.2 °F - 62.6 °F 65% 30.04 in 10.0 mi East 9.2 mph - N/A   Partly Cloudy
3:35 AM 73.4 °F - 62.6 °F 69% 30.03 in 10.0 mi East 10.4 mph - N/A   Clear
3:55 AM 73.4 °F - 62.6 °F 69% 30.03 in 10.0 mi East 11.5 mph - N/A   Clear
4:15 AM 73.4 °F - 62.6 °F 69% 30.03 in 10.0 mi East 11.5 mph - N/A   Clear
4:35 AM 73.4 °F - 60.8 °F 65% 30.03 in 10.0 mi East 9.2 mph - N/A   Clear
4:55 AM 73.4 °F - 60.8 °F 65% 30.03 in 10.0 mi East 10.4 mph - N/A   Clear
5:15 AM 73.4 °F - 60.8 °F 65% 30.02 in 10.0 mi East 9.2 mph - N/A   Clear
5:35 AM 73.4 °F - 60.8 °F 65% 30.02 in 10.0 mi ENE 9.2 mph - N/A   Clear
5:55 AM 71.6 °F - 60.8 °F 69% 30.05 in 10.0 mi NNW 13.8 mph - N/A   Clear
6:15 AM 73.4 °F - 60.8 °F 65% 30.06 in 10.0 mi NE 8.1 mph - N/A   Clear
6:35 AM 73.4 °F - 62.6 °F 69% 30.07 in 7.0 mi NNE 6.9 mph - N/A   Clear
6:55 AM 73.4 °F - 62.6 °F 69% 30.07 in 6.0 mi ENE 9.2 mph - N/A   Partly Cloudy
7:15 AM 73.4 °F - 60.8 °F 65% 30.07 in 10.0 mi ENE 16.1 mph - N/A   Mostly Cloudy
7:35 AM 71.6 °F - 62.6 °F 73% 30.07 in 9.0 mi ENE 13.8 mph - N/A   Overcast
7:55 AM 73.4 °F - 62.6 °F 69% 30.07 in 10.0 mi East 16.1 mph - N/A   Overcast
8:15 AM 71.6 °F - 62.6 °F 73% 30.07 in 10.0 mi East 19.6 mph 24.2 mph N/A   Overcast
8:35 AM 73.4 °F - 62.6 °F 69% 30.07 in 10.0 mi East 18.4 mph 24.2 mph N/A   Overcast
8:55 AM 75.2 °F - 62.6 °F 65% 30.07 in 10.0 mi East 18.4 mph - N/A   Mostly Cloudy
9:15 AM 75.2 °F - 62.6 °F 65% 30.07 in 8.0 mi ESE 23.0 mph 27.6 mph N/A   Partly Cloudy
9:35 AM 77.0 °F - 62.6 °F 61% 30.06 in 10.0 mi ESE 25.3 mph 29.9 mph N/A   Clear
9:55 AM 78.8 °F - 64.4 °F 61% 30.06 in 10.0 mi SE 23.0 mph 29.9 mph N/A   Clear
10:15 AM 78.8 °F - 62.6 °F 57% 30.05 in 5.0 mi ESE 24.2 mph - N/A   Clear
10:35 AM - - - N/A% - - North - - N/A   Unknown
10:55 AM 82.4 °F 88.2 °F 73.4 °F 74% 30.05 in - Calm Calm - N/A   Unknown
11:15 AM - - - N/A% 30.04 in - SE 13.8 mph - N/A   Unknown
11:35 AM 84.2 °F 86.6 °F 66.2 °F 55% 30.05 in 10.0 mi SSE 12.7 mph - N/A   Clear
11:55 AM 84.2 °F 86.6 °F 66.2 °F 55% 30.05 in 10.0 mi SSE 13.8 mph - N/A   Clear
12:15 PM 86.0 °F 88.2 °F 66.2 °F 51% 30.04 in 10.0 mi SSE 12.7 mph 18.4 mph N/A   Clear
12:35 PM 87.8 °F 90.4 °F 66.2 °F 49% 30.03 in 10.0 mi SSE 15.0 mph - N/A   Clear
12:55 PM 87.8 °F 91.4 °F 68.0 °F 52% 30.03 in 10.0 mi South 13.8 mph - N/A   Clear
1:15 PM 87.8 °F 90.4 °F 66.2 °F 49% 30.03 in 10.0 mi SSE 9.2 mph - N/A   Clear
1:35 PM 87.8 °F 90.4 °F 66.2 °F 49% 30.02 in 10.0 mi South 11.5 mph - N/A   Clear
1:55 PM 89.6 °F 92.2 °F 66.2 °F 46% 30.01 in 10.0 mi South 9.2 mph - N/A   Clear
2:15 PM 89.6 °F 93.4 °F 68.0 °F 49% 30.00 in 10.0 mi SSE 11.5 mph - N/A   Clear
2:35 PM 91.4 °F 95.4 °F 68.0 °F 46% 30.00 in 10.0 mi South 11.5 mph - N/A   Clear
2:55 PM 91.4 °F 94.0 °F 66.2 °F 43% 29.99 in 10.0 mi SSE 10.4 mph - N/A   Clear
3:15 PM 91.4 °F 94.0 °F 66.2 °F 43% 29.98 in 10.0 mi South 10.4 mph - N/A   Clear
3:35 PM 93.2 °F 96.2 °F 66.2 °F 41% 29.97 in 10.0 mi SE 10.4 mph - N/A   Clear
3:55 PM 93.2 °F 94.9 °F 64.4 °F 38% 29.96 in 10.0 mi SSE 6.9 mph - N/A   Clear
4:15 PM 95.0 °F 97.0 °F 64.4 °F 36% 29.95 in 10.0 mi South 9.2 mph - N/A   Clear
4:35 PM 96.8 °F 99.0 °F 64.4 °F 34% 29.94 in 10.0 mi SSE 9.2 mph - N/A   Clear
4:55 PM 96.8 °F 100.7 °F 66.2 °F 37% 29.94 in 10.0 mi SSE 8.1 mph - N/A   Scattered Clouds
5:15 PM 95.0 °F 98.5 °F 66.2 °F 39% 29.93 in 10.0 mi South 5.8 mph - N/A   Partly Cloudy
5:35 PM 96.8 °F 100.7 °F 66.2 °F 37% 29.92 in 10.0 mi South 6.9 mph - N/A   Partly Cloudy
5:55 PM 96.8 °F 100.7 °F 66.2 °F 37% 29.92 in 10.0 mi SSE 9.2 mph - N/A   Clear
6:15 PM 95.0 °F 98.5 °F 66.2 °F 39% 29.91 in 10.0 mi SE 9.2 mph - N/A   Clear
6:35 PM 95.0 °F 98.5 °F 66.2 °F 39% 29.90 in 10.0 mi SE 11.5 mph - N/A   Clear
6:55 PM 95.0 °F 97.0 °F 64.4 °F 36% 29.91 in 10.0 mi SSE 10.4 mph - N/A   Clear
7:15 PM 95.0 °F 97.0 °F 64.4 °F 36% 29.90 in 10.0 mi SSE 11.5 mph - N/A   Clear
7:35 PM 93.2 °F 94.9 °F 64.4 °F 38% 29.91 in 10.0 mi SE 12.7 mph - N/A   Clear
7:55 PM 91.4 °F 93.2 °F 64.4 °F 41% 29.91 in 10.0 mi SE 13.8 mph - N/A   Clear
8:15 PM 91.4 °F 93.2 °F 64.4 °F 41% 29.91 in 10.0 mi SE 12.7 mph - N/A   Clear
8:35 PM 89.6 °F 90.1 °F 62.6 °F 40% 29.91 in 10.0 mi SE 15.0 mph - N/A   Clear
8:55 PM 87.8 °F 88.5 °F 62.6 °F 43% 29.92 in 10.0 mi SE 10.4 mph - N/A   Partly Cloudy
9:15 PM 87.8 °F 88.5 °F 62.6 °F 43% 29.92 in 10.0 mi SE 10.4 mph - N/A   Scattered Clouds
9:35 PM 86.0 °F 86.6 °F 62.6 °F 45% 29.93 in 10.0 mi SE 9.2 mph - N/A   Overcast
9:55 PM 84.2 °F 85.0 °F 62.6 °F 48% 29.93 in 10.0 mi SE 8.1 mph - N/A   Mostly Cloudy
10:15 PM 82.4 °F 83.9 °F 64.4 °F 54% 29.94 in 10.0 mi SE 9.2 mph - N/A   Scattered Clouds
10:35 PM 82.4 °F 83.4 °F 62.6 °F 51% 29.95 in 10.0 mi SE 9.2 mph - N/A   Partly Cloudy
10:55 PM 82.4 °F 83.9 °F 64.4 °F 54% 29.95 in 10.0 mi SE 9.2 mph - N/A   Partly Cloudy
11:15 PM 80.6 °F 82.3 °F 64.4 °F 58% 29.97 in 10.0 mi SE 9.2 mph - N/A   Clear
11:35 PM 80.6 °F 82.3 °F 64.4 °F 58% 29.97 in 10.0 mi SE 8.1 mph - N/A   Clear
11:55 PM 80.6 °F 82.3 °F 64.4 °F 58% 29.97 in 10.0 mi SE 10.4 mph - N/A   Clear